Аэропорт: Сокол. Магадан

ICAO: UHMM

METAR:
2018/07/22 14:00
UHMM 221400Z 00000MPS 9999 NSC 09/07 Q1010 RMK QFE743
METAR:
2018/07/22 18:37
TAF UHMM 221700Z 2218/2324 20003MPS 9999 SCT040 BKN070 
      TEMPO 2218/2222 FEW004 BKN011 
      BECMG 2222/2223 22003G09MPS